Time;durP1;ratioP1;P1;durP2;ratioP2;P2;SDS_P1;SDS_P2;PMS_P1;PMS_P2;Temp;Humidity;BMP_temperature;BMP_pressure;BME280_temperature;BME280_humidity;BME280_pressure;Samples;Min_cycle;Max_cycle;Signal;HPM_P1;HPM_P2
2021/04/02 00:01:41;;;;;;;29.40;21.10;;;;;;;;;;4955892;29;20415;-80
2021/04/02 00:07:11;;;;;;;36.60;22.87;;;;;;;;;;4955870;29;20475;-82
2021/04/02 00:09:37;;;;;;;31.27;22.50;;;;;;;;;;4955824;29;20970;-74
2021/04/02 00:12:03;;;;;;;30.57;22.00;;;;;;;;;;4961722;29;20454;-74
2021/04/02 00:14:29;;;;;;;31.67;22.27;;;;;;;;;;4968956;29;20419;-79
2021/04/02 00:22:44;;;;;;;31.50;20.47;;;;;;;;;;4956638;29;20410;-83
2021/04/02 00:25:10;;;;;;;39.37;23.00;;;;;;;;;;4955405;29;20454;-83
2021/04/02 00:27:37;;;;;;;31.57;21.90;;;;;;;;;;4955961;29;20503;-78
2021/04/02 00:30:14;;;;;;;32.97;20.60;;;;;;;;;;4956279;29;20424;-77
2021/04/02 00:32:40;;;;;;;30.73;23.63;;;;;;;;;;4955225;28;20825;-81
2021/04/02 00:35:07;;;;;;;34.80;23.60;;;;;;;;;;4955437;29;20463;-80
2021/04/02 00:37:33;;;;;;;29.53;21.33;;;;;;;;;;4955486;29;20427;-85
2021/04/02 00:39:59;;;;;;;32.30;21.40;;;;;;;;;;4955053;29;20528;-83
2021/04/02 00:42:25;;;;;;;29.73;22.10;;;;;;;;;;4955407;29;20447;-82
2021/04/02 00:44:51;;;;;;;35.07;22.47;;;;;;;;;;4955292;29;20427;-81
2021/04/02 00:47:17;;;;;;;34.07;23.50;;;;;;;;;;4955318;29;20519;-85
2021/04/02 00:49:43;;;;;;;35.60;24.73;;;;;;;;;;4933421;29;20535;-83
2021/04/02 00:52:09;;;;;;;34.00;23.20;;;;;;;;;;4955193;29;20483;-83
2021/04/02 00:54:35;;;;;;;35.37;24.83;;;;;;;;;;4955037;29;20783;-83
2021/04/02 00:57:01;;;;;;;41.00;24.60;;;;;;;;;;4956064;29;20463;-82
2021/04/02 00:59:27;;;;;;;39.57;24.50;;;;;;;;;;4956481;29;20428;-84
2021/04/02 01:01:53;;;;;;;35.70;24.27;;;;;;;;;;4956631;29;20431;-83
2021/04/02 01:07:22;;;;;;;35.23;24.10;;;;;;;;;;4954526;29;21154;-83
2021/04/02 01:09:48;;;;;;;34.87;23.67;;;;;;;;;;4954509;29;20424;-82
2021/04/02 01:12:14;;;;;;;40.17;24.23;;;;;;;;;;4954701;29;20415;-81
2021/04/02 01:14:41;;;;;;;35.67;25.67;;;;;;;;;;4954829;29;20906;-83
2021/04/02 01:17:07;;;;;;;39.23;24.60;;;;;;;;;;4955111;29;20459;-83
2021/04/02 01:22:36;;;;;;;31.53;23.87;;;;;;;;;;4955002;29;20840;-82
2021/04/02 01:25:05;;;;;;;36.53;24.83;;;;;;;;;;4954251;29;20412;-82
2021/04/02 01:27:40;;;;;;;34.30;22.67;;;;;;;;;;4955056;29;20441;-83
2021/04/02 01:30:10;;;;;;;39.10;24.20;;;;;;;;;;4937574;29;20490;-82
2021/04/02 01:32:39;;;;;;;33.10;23.90;;;;;;;;;;4955076;29;20407;-79
2021/04/02 01:35:11;;;;;;;35.47;21.97;;;;;;;;;;4937450;29;20470;-83
2021/04/02 01:37:38;;;;;;;32.93;22.47;;;;;;;;;;4954886;29;20590;-83
2021/04/02 01:40:06;;;;;;;31.03;22.47;;;;;;;;;;4954622;29;20752;-82
2021/04/02 01:42:34;;;;;;;34.03;22.07;;;;;;;;;;4960110;29;20430;-83
2021/04/02 01:45:00;;;;;;;30.77;20.00;;;;;;;;;;4957507;28;20517;-81
2021/04/02 01:47:27;;;;;;;31.10;21.90;;;;;;;;;;4958533;29;20424;-81
2021/04/02 01:52:57;;;;;;;24.10;18.67;;;;;;;;;;4958306;29;20426;-83
2021/04/02 01:55:24;;;;;;;32.37;20.50;;;;;;;;;;4958010;29;20465;-81
2021/04/02 01:57:50;;;;;;;30.17;18.70;;;;;;;;;;4958673;29;20822;-83
2021/04/02 02:00:30;;;;;;;26.83;17.27;;;;;;;;;;4958034;29;20442;-83
2021/04/02 02:02:57;;;;;;;23.07;16.47;;;;;;;;;;4958182;29;20958;-84
2021/04/02 02:05:23;;;;;;;22.47;16.43;;;;;;;;;;4958009;29;20419;-83
2021/04/02 02:07:50;;;;;;;24.33;14.43;;;;;;;;;;4958414;29;20434;-82
2021/04/02 02:10:17;;;;;;;22.40;16.90;;;;;;;;;;4958126;29;20427;-82
2021/04/02 02:12:44;;;;;;;19.87;13.13;;;;;;;;;;4958035;29;20427;-81
2021/04/02 02:15:11;;;;;;;21.27;14.60;;;;;;;;;;4961859;29;20486;-79
2021/04/02 02:17:37;;;;;;;20.30;14.37;;;;;;;;;;4977341;29;20423;-82
2021/04/02 02:23:08;;;;;;;17.00;13.23;;;;;;;;;;4958439;29;20421;-84
2021/04/02 02:25:34;;;;;;;20.30;12.20;;;;;;;;;;4958228;29;20793;-83
2021/04/02 02:28:00;;;;;;;18.53;12.40;;;;;;;;;;4958242;29;20422;-83
2021/04/02 02:30:28;;;;;;;18.90;11.83;;;;;;;;;;4958127;29;20436;-83
2021/04/02 02:32:54;;;;;;;19.13;11.53;;;;;;;;;;4957859;29;20778;-81
2021/04/02 02:38:24;;;;;;;18.70;13.50;;;;;;;;;;4957751;29;20852;-81
2021/04/02 02:40:50;;;;;;;13.77;11.87;;;;;;;;;;4957586;29;20487;-82
2021/04/02 02:43:16;;;;;;;20.33;12.43;;;;;;;;;;4940325;29;20423;-83
2021/04/02 02:45:43;;;;;;;20.43;12.83;;;;;;;;;;4957364;29;20419;-83
2021/04/02 02:48:10;;;;;;;16.23;11.00;;;;;;;;;;4958356;29;20782;-83
2021/04/02 02:50:39;;;;;;;14.80;10.80;;;;;;;;;;4957658;29;20809;-81
2021/04/02 02:53:06;;;;;;;16.40;9.43;;;;;;;;;;4958170;29;20427;-84
2021/04/02 02:55:33;;;;;;;18.93;10.27;;;;;;;;;;4956222;28;20466;-83
2021/04/02 02:58:00;;;;;;;19.30;10.30;;;;;;;;;;4957471;29;20423;-84
2021/04/02 03:00:28;;;;;;;14.57;9.60;;;;;;;;;;4957105;29;20787;-80
2021/04/02 03:02:56;;;;;;;13.87;10.17;;;;;;;;;;4958416;29;20442;-84
2021/04/02 03:08:27;;;;;;;14.90;10.17;;;;;;;;;;4957035;29;20518;-83
2021/04/02 03:10:53;;;;;;;16.43;11.37;;;;;;;;;;4956767;29;20427;-79
2021/04/02 03:13:20;;;;;;;15.10;11.27;;;;;;;;;;4957091;29;20854;-79
2021/04/02 03:15:47;;;;;;;22.50;12.20;;;;;;;;;;4956962;29;20470;-82
2021/04/02 03:18:16;;;;;;;17.53;10.27;;;;;;;;;;4956941;29;20411;-83
2021/04/02 03:20:43;;;;;;;16.73;10.13;;;;;;;;;;4956523;29;20427;-84
2021/04/02 03:23:11;;;;;;;14.73;11.63;;;;;;;;;;4956923;29;20423;-82
2021/04/02 03:25:38;;;;;;;14.87;10.33;;;;;;;;;;4956617;29;20423;-84
2021/04/02 03:28:05;;;;;;;13.40;9.30;;;;;;;;;;4956882;29;20422;-83
2021/04/02 03:30:31;;;;;;;14.67;9.60;;;;;;;;;;4956775;29;20777;-82
2021/04/02 03:33:06;;;;;;;12.80;9.57;;;;;;;;;;4956857;29;20784;-81
2021/04/02 03:38:38;;;;;;;13.50;9.50;;;;;;;;;;4956601;29;20488;-83
2021/04/02 03:41:05;;;;;;;13.40;10.40;;;;;;;;;;4956326;29;20449;-83
2021/04/02 03:43:32;;;;;;;17.00;11.27;;;;;;;;;;4956471;29;20421;-79
2021/04/02 03:46:00;;;;;;;20.30;9.50;;;;;;;;;;4956697;29;20774;-77
2021/04/02 03:48:26;;;;;;;12.17;8.57;;;;;;;;;;4956453;29;20450;-81
2021/04/02 03:50:54;;;;;;;26.47;9.83;;;;;;;;;;4955986;29;20988;-83
2021/04/02 03:53:29;;;;;;;14.70;8.80;;;;;;;;;;4955327;29;20744;-82
2021/04/02 03:55:56;;;;;;;10.20;8.10;;;;;;;;;;4955687;29;20468;-79
2021/04/02 03:58:23;;;;;;;10.97;7.30;;;;;;;;;;4956159;29;20486;-83
2021/04/02 04:00:51;;;;;;;11.20;8.40;;;;;;;;;;4955911;29;20519;-78
2021/04/02 04:03:18;;;;;;;11.80;7.83;;;;;;;;;;4955906;29;20413;-84
2021/04/02 04:08:49;;;;;;;11.40;7.37;;;;;;;;;;4956242;29;20521;-82
2021/04/02 04:11:16;;;;;;;9.63;8.00;;;;;;;;;;4956138;29;20433;-83
2021/04/02 04:13:42;;;;;;;12.13;8.13;;;;;;;;;;4939567;29;20644;-83
2021/04/02 04:16:10;;;;;;;15.53;8.40;;;;;;;;;;4971342;29;20484;-82
2021/04/02 04:18:36;;;;;;;16.17;8.47;;;;;;;;;;4971903;29;20416;-83
2021/04/02 04:24:07;;;;;;;8.93;6.60;;;;;;;;;;4958265;29;20482;-84
2021/04/02 04:26:34;;;;;;;8.60;6.87;;;;;;;;;;4958769;29;20440;-84
2021/04/02 04:29:00;;;;;;;10.43;7.10;;;;;;;;;;4956316;29;20475;-82
2021/04/02 04:31:27;;;;;;;8.60;6.07;;;;;;;;;;4956071;29;20426;-83
2021/04/02 04:33:54;;;;;;;8.97;6.33;;;;;;;;;;4956598;29;20422;-84
2021/04/02 04:36:20;;;;;;;6.23;5.37;;;;;;;;;;4955886;29;20476;-84
2021/04/02 04:38:49;;;;;;;5.77;5.07;;;;;;;;;;4964126;29;20424;-83
2021/04/02 04:41:15;;;;;;;7.47;4.90;;;;;;;;;;4965663;29;20895;-80
2021/04/02 04:43:43;;;;;;;6.93;5.67;;;;;;;;;;4959591;29;20501;-83
2021/04/02 04:46:09;;;;;;;7.83;5.27;;;;;;;;;;4956155;29;20415;-84
2021/04/02 04:48:35;;;;;;;7.50;4.70;;;;;;;;;;4955497;29;20431;-82
2021/04/02 04:54:05;;;;;;;6.33;3.90;;;;;;;;;;4955192;29;20510;-84
2021/04/02 04:56:32;;;;;;;5.67;4.00;;;;;;;;;;4955272;29;20472;-84
2021/04/02 04:59:05;;;;;;;6.83;4.10;;;;;;;;;;4955062;29;20407;-84
2021/04/02 05:01:34;;;;;;;7.20;3.40;;;;;;;;;;4955179;29;20423;-83
2021/04/02 05:09:51;;;;;;;4.50;2.70;;;;;;;;;;4954326;29;20512;-81
2021/04/02 05:12:17;;;;;;;6.33;3.00;;;;;;;;;;4954284;29;21068;-80
2021/04/02 05:14:44;;;;;;;7.60;3.20;;;;;;;;;;4954039;29;20422;-80
2021/04/02 05:17:10;;;;;;;3.00;2.70;;;;;;;;;;4954831;29;20926;-82
2021/04/02 05:19:37;;;;;;;7.93;2.80;;;;;;;;;;4954008;28;20453;-82
2021/04/02 05:22:03;;;;;;;4.77;3.00;;;;;;;;;;4954920;29;20416;-81
2021/04/02 05:24:31;;;;;;;4.00;3.10;;;;;;;;;;4954546;29;20431;-77
2021/04/02 05:26:56;;;;;;;2.90;2.40;;;;;;;;;;4954178;29;20427;-83
2021/04/02 05:29:23;;;;;;;5.37;2.50;;;;;;;;;;4954426;29;20436;-82
2021/04/02 05:31:49;;;;;;;4.67;2.67;;;;;;;;;;4954541;29;20434;-83
2021/04/02 05:34:15;;;;;;;4.40;2.90;;;;;;;;;;4954491;29;20424;-80
2021/04/02 05:39:44;;;;;;;4.40;2.27;;;;;;;;;;4954883;29;20422;-84
2021/04/02 05:42:12;;;;;;;3.70;2.10;;;;;;;;;;4954880;29;20413;-83
2021/04/02 05:44:39;;;;;;;3.27;2.53;;;;;;;;;;4954819;29;20423;-82
2021/04/02 05:47:06;;;;;;;3.40;2.40;;;;;;;;;;4942666;29;20536;-84
2021/04/02 05:49:32;;;;;;;7.13;2.20;;;;;;;;;;4957077;29;20512;-83
2021/04/02 05:51:59;;;;;;;7.93;2.37;;;;;;;;;;4953682;29;20467;-85
2021/04/02 05:54:35;;;;;;;3.97;2.47;;;;;;;;;;4953824;29;20414;-82
2021/04/02 05:57:02;;;;;;;6.20;2.30;;;;;;;;;;4952886;29;20566;-77
2021/04/02 05:59:28;;;;;;;2.87;2.50;;;;;;;;;;4953466;29;20512;-85
2021/04/02 06:01:54;;;;;;;3.43;2.50;;;;;;;;;;4953354;29;20431;-83
2021/04/02 06:04:20;;;;;;;3.50;2.27;;;;;;;;;;4953456;29;20448;-84
2021/04/02 06:09:49;;;;;;;5.30;2.63;;;;;;;;;;4953799;29;20945;-81
2021/04/02 06:12:15;;;;;;;5.40;3.13;;;;;;;;;;4964746;29;20416;-77
2021/04/02 06:14:41;;;;;;;4.33;2.90;;;;;;;;;;4963234;29;21066;-81
2021/04/02 06:17:07;;;;;;;3.10;2.33;;;;;;;;;;4955218;29;20477;-83
2021/04/02 06:19:33;;;;;;;3.77;3.03;;;;;;;;;;4950208;29;20411;-84
2021/04/02 06:25:03;;;;;;;7.13;3.03;;;;;;;;;;4954112;29;20431;-77
2021/04/02 06:27:30;;;;;;;3.47;2.80;;;;;;;;;;4957154;29;20431;-79
2021/04/02 06:30:05;;;;;;;3.10;2.70;;;;;;;;;;4964583;28;20431;-79
2021/04/02 06:32:35;;;;;;;10.10;3.97;;;;;;;;;;4967559;29;20411;-84
2021/04/02 06:35:10;;;;;;;4.37;3.50;;;;;;;;;;4958249;29;20427;-77
2021/04/02 06:37:36;;;;;;;5.03;3.80;;;;;;;;;;4957690;29;20418;-85
2021/04/02 06:40:04;;;;;;;5.77;3.60;;;;;;;;;;4957552;29;20435;-79
2021/04/02 06:42:30;;;;;;;5.30;3.20;;;;;;;;;;4958656;29;20887;-84
2021/04/02 06:45:00;;;;;;;6.70;4.13;;;;;;;;;;4957684;29;20506;-81
2021/04/02 06:47:36;;;;;;;5.93;3.60;;;;;;;;;;4957059;29;20452;-83
2021/04/02 06:56:10;;;;;;;4.93;3.87;;;;;;;;;;4955687;29;20566;-76
2021/04/02 06:58:38;;;;;;;4.83;4.20;;;;;;;;;;4957081;29;20882;-79
2021/04/02 07:01:04;;;;;;;3.93;3.57;;;;;;;;;;4957332;29;20443;-84
2021/04/02 07:03:32;;;;;;;4.33;3.63;;;;;;;;;;4956837;29;20423;-77
2021/04/02 07:05:58;;;;;;;4.50;4.10;;;;;;;;;;4956671;29;20452;-79
2021/04/02 07:08:26;;;;;;;7.20;5.10;;;;;;;;;;4958442;29;20435;-78
2021/04/02 07:10:52;;;;;;;8.40;4.40;;;;;;;;;;4958946;29;20534;-82
2021/04/02 07:13:18;;;;;;;4.90;3.60;;;;;;;;;;4956743;29;20428;-78
2021/04/02 07:15:44;;;;;;;6.30;4.10;;;;;;;;;;4956387;29;20475;-79
2021/04/02 07:18:12;;;;;;;5.90;4.40;;;;;;;;;;4956678;29;20458;-83
2021/04/02 07:20:38;;;;;;;5.60;3.90;;;;;;;;;;4956117;29;20796;-75
2021/04/02 07:23:04;;;;;;;7.27;4.50;;;;;;;;;;4939386;29;20802;-74
2021/04/02 07:25:30;;;;;;;5.80;3.80;;;;;;;;;;4956241;29;20435;-77
2021/04/02 07:27:57;;;;;;;4.73;4.07;;;;;;;;;;4956058;29;20415;-75
2021/04/02 07:30:24;;;;;;;7.27;4.70;;;;;;;;;;4957276;29;20431;-76
2021/04/02 07:32:51;;;;;;;4.13;3.73;;;;;;;;;;4957149;29;20420;-80
2021/04/02 07:35:18;;;;;;;7.40;4.53;;;;;;;;;;4956062;29;20463;-83
2021/04/02 07:40:49;;;;;;;5.30;4.80;;;;;;;;;;4956043;28;20435;-79
2021/04/02 07:43:15;;;;;;;5.27;4.77;;;;;;;;;;4956113;29;20408;-85
2021/04/02 07:45:41;;;;;;;6.93;4.30;;;;;;;;;;4956669;29;20415;-81
2021/04/02 07:48:12;;;;;;;7.03;4.80;;;;;;;;;;4956811;29;20427;-83
2021/04/02 07:50:45;;;;;;;7.33;4.73;;;;;;;;;;4955869;29;20544;-82
2021/04/02 07:53:20;;;;;;;6.00;4.63;;;;;;;;;;4956323;29;20807;-82
2021/04/02 07:56:09;;;;;;;4.83;4.10;;;;;;;;;;4956772;29;20461;-87
2021/04/02 07:58:39;;;;;;;5.00;4.40;;;;;;;;;;4955668;29;20452;-85
2021/04/02 08:01:05;;;;;;;5.23;4.73;;;;;;;;;;4964651;29;20435;-76
2021/04/02 08:03:31;;;;;;;6.20;5.60;;;;;;;;;;4967447;29;20423;-77
2021/04/02 08:05:57;;;;;;;8.23;4.73;;;;;;;;;;4962089;29;20537;-86
2021/04/02 08:08:25;;;;;;;5.80;5.30;;;;;;;;;;4957580;29;20423;-77
2021/04/02 08:11:01;;;;;;;5.50;5.00;;;;;;;;;;4955805;29;20415;-77
2021/04/02 08:13:27;;;;;;;5.80;5.17;;;;;;;;;;4940754;29;20432;-85
2021/04/02 08:15:53;;;;;;;6.63;5.67;;;;;;;;;;4962214;29;20494;-75
2021/04/02 08:18:26;;;;;;;6.47;5.83;;;;;;;;;;4969852;28;20522;-78
2021/04/02 08:20:55;;;;;;;6.70;5.90;;;;;;;;;;4960594;29;20420;-78
2021/04/02 08:23:22;;;;;;;9.13;6.37;;;;;;;;;;4957691;29;20506;-77
2021/04/02 08:25:53;;;;;;;6.30;5.70;;;;;;;;;;4955678;29;20891;-76
2021/04/02 08:28:22;;;;;;;5.87;5.37;;;;;;;;;;4955501;29;20431;-82
2021/04/02 08:30:50;;;;;;;6.13;5.53;;;;;;;;;;4955338;29;20503;-85
2021/04/02 08:33:16;;;;;;;6.87;6.17;;;;;;;;;;4955281;29;20427;-81
2021/04/02 08:35:42;;;;;;;5.53;5.03;;;;;;;;;;4954716;29;20475;-86
2021/04/02 08:38:08;;;;;;;9.10;5.23;;;;;;;;;;4952563;29;20412;-86
2021/04/02 08:40:38;;;;;;;7.57;6.13;;;;;;;;;;4953877;29;20427;-84
2021/04/02 08:43:05;;;;;;;6.37;5.77;;;;;;;;;;4954423;29;20442;-85
2021/04/02 08:45:35;;;;;;;6.50;5.90;;;;;;;;;;4953859;29;20438;-87
2021/04/02 08:48:01;;;;;;;6.00;5.50;;;;;;;;;;4953498;29;20420;-88
2021/04/02 08:50:27;;;;;;;7.27;6.57;;;;;;;;;;4932841;29;20479;-87
2021/04/02 08:55:56;;;;;;;6.57;5.97;;;;;;;;;;4933885;29;20639;-83
2021/04/02 08:58:25;;;;;;;7.07;6.27;;;;;;;;;;4934217;29;20469;-78
2021/04/02 09:00:51;;;;;;;7.70;6.90;;;;;;;;;;4933915;29;20515;-83
2021/04/02 09:03:17;;;;;;;9.13;6.63;;;;;;;;;;4933932;29;20450;-86
2021/04/02 09:05:43;;;;;;;7.80;7.00;;;;;;;;;;4933929;29;20540;-84
2021/04/02 09:11:13;;;;;;;6.73;6.13;;;;;;;;;;4933913;29;20424;-84
2021/04/02 09:13:40;;;;;;;7.93;7.00;;;;;;;;;;4934295;29;20420;-86
2021/04/02 09:16:14;;;;;;;8.40;6.37;;;;;;;;;;4936843;29;20543;-85
2021/04/02 09:18:57;;;;;;;7.50;6.90;;;;;;;;;;4937744;29;20471;-84
2021/04/02 09:21:24;;;;;;;6.87;6.27;;;;;;;;;;4938995;29;20511;-82
2021/04/02 09:23:51;;;;;;;8.47;7.77;;;;;;;;;;4936541;29;20966;-86
2021/04/02 09:26:18;;;;;;;7.80;7.10;;;;;;;;;;4936046;29;20416;-79
2021/04/02 09:28:44;;;;;;;8.47;6.90;;;;;;;;;;4935506;29;20418;-78
2021/04/02 09:31:14;;;;;;;7.20;6.50;;;;;;;;;;4935310;29;20472;-79
2021/04/02 09:33:44;;;;;;;7.60;6.73;;;;;;;;;;4935549;29;20413;-80
2021/04/02 09:36:11;;;;;;;8.80;7.07;;;;;;;;;;4935131;29;20518;-77
2021/04/02 09:41:43;;;;;;;7.87;7.17;;;;;;;;;;4932081;29;20475;-78
2021/04/02 09:44:10;;;;;;;8.83;8.10;;;;;;;;;;4933834;29;20416;-82
2021/04/02 09:46:40;;;;;;;7.60;6.90;;;;;;;;;;4933819;29;20798;-78
2021/04/02 09:49:14;;;;;;;8.47;7.37;;;;;;;;;;4933905;29;20459;-80
2021/04/02 09:51:41;;;;;;;8.30;7.37;;;;;;;;;;4946692;29;20491;-75
2021/04/02 09:54:08;;;;;;;9.57;8.57;;;;;;;;;;4952933;29;20761;-80
2021/04/02 09:56:34;;;;;;;8.43;7.63;;;;;;;;;;4952753;29;20837;-75
2021/04/02 09:59:00;;;;;;;7.93;7.20;;;;;;;;;;4952628;29;20411;-79
2021/04/02 10:01:26;;;;;;;8.10;7.43;;;;;;;;;;4952613;29;20839;-78
2021/04/02 10:03:52;;;;;;;7.43;6.83;;;;;;;;;;4935275;29;20547;-78
2021/04/02 10:06:19;;;;;;;8.97;8.17;;;;;;;;;;4956489;28;20439;-80
2021/04/02 10:11:49;;;;;;;7.53;6.70;;;;;;;;;;4975445;29;20419;-78
2021/04/02 10:14:16;;;;;;;10.10;8.40;;;;;;;;;;4963012;29;20438;-82
2021/04/02 10:16:45;;;;;;;8.80;8.00;;;;;;;;;;4958347;29;20471;-83
2021/04/02 10:19:11;;;;;;;9.00;8.20;;;;;;;;;;4958396;29;20527;-80
2021/04/02 10:21:37;;;;;;;9.07;6.60;;;;;;;;;;4958470;29;20451;-86
2021/04/02 10:27:07;;;;;;;9.33;7.50;;;;;;;;;;4957962;29;20482;-86
2021/04/02 10:29:34;;;;;;;7.40;6.70;;;;;;;;;;4958119;29;20478;-84
2021/04/02 10:32:00;;;;;;;10.60;9.10;;;;;;;;;;4958522;29;20426;-84
2021/04/02 10:34:27;;;;;;;8.97;7.50;;;;;;;;;;4957144;29;20518;-79
2021/04/02 10:36:53;;;;;;;11.50;7.90;;;;;;;;;;4958223;29;20486;-81
2021/04/02 10:39:19;;;;;;;8.10;7.30;;;;;;;;;;4961056;29;20447;-74
2021/04/02 10:41:45;;;;;;;9.20;7.63;;;;;;;;;;4965795;29;20894;-81
2021/04/02 10:44:11;;;;;;;8.20;7.40;;;;;;;;;;4959510;29;20450;-86
2021/04/02 10:46:37;;;;;;;8.13;7.33;;;;;;;;;;4958461;29;20483;-84
2021/04/02 10:49:03;;;;;;;7.90;7.17;;;;;;;;;;4957783;29;20871;-83
2021/04/02 10:51:30;;;;;;;9.00;6.97;;;;;;;;;;4957117;29;20479;-79
2021/04/02 10:57:00;;;;;;;8.23;7.53;;;;;;;;;;4957154;29;20874;-78
2021/04/02 10:59:26;;;;;;;8.23;7.50;;;;;;;;;;4956754;29;20516;-76
2021/04/02 11:01:52;;;;;;;8.70;7.80;;;;;;;;;;4955933;29;20483;-80
2021/04/02 11:04:18;;;;;;;8.03;7.33;;;;;;;;;;4956622;29;20431;-80
2021/04/02 11:06:44;;;;;;;8.47;7.77;;;;;;;;;;4956228;29;20434;-78
2021/04/02 11:12:13;;;;;;;8.10;7.27;;;;;;;;;;4955881;29;20463;-84
2021/04/02 11:14:39;;;;;;;8.00;6.90;;;;;;;;;;4955744;29;20419;-79
2021/04/02 11:17:05;;;;;;;9.07;8.17;;;;;;;;;;4955220;28;20566;-83
2021/04/02 11:19:31;;;;;;;7.97;7.17;;;;;;;;;;4938206;29;20435;-76
2021/04/02 11:21:57;;;;;;;10.23;7.63;;;;;;;;;;4955761;29;20430;-83
2021/04/02 11:27:27;;;;;;;8.83;7.93;;;;;;;;;;4955970;29;20402;-86
2021/04/02 11:29:55;;;;;;;11.67;8.33;;;;;;;;;;4956042;29;20416;-82
2021/04/02 11:32:21;;;;;;;8.23;7.20;;;;;;;;;;4956272;29;20963;-85
2021/04/02 11:34:48;;;;;;;12.33;7.90;;;;;;;;;;4956384;29;20420;-87
2021/04/02 11:37:14;;;;;;;9.50;6.90;;;;;;;;;;4955893;29;20566;-81
2021/04/02 11:42:43;;;;;;;12.63;6.87;;;;;;;;;;4955784;29;20467;-83
2021/04/02 11:45:09;;;;;;;9.93;7.50;;;;;;;;;;4955718;29;20423;-77
2021/04/02 11:47:36;;;;;;;7.80;6.70;;;;;;;;;;4955691;29;20720;-77
2021/04/02 11:50:02;;;;;;;8.03;7.33;;;;;;;;;;4955280;29;20427;-75
2021/04/02 11:58:16;;;;;;;7.00;6.30;;;;;;;;;;4955620;29;20464;-81
2021/04/02 12:00:42;;;;;;;7.60;6.83;;;;;;;;;;4956518;29;20424;-80
2021/04/02 12:03:08;;;;;;;8.43;7.57;;;;;;;;;;4966730;29;20728;-78
2021/04/02 12:05:34;;;;;;;7.17;6.47;;;;;;;;;;4958007;29;20801;-82
2021/04/02 12:08:00;;;;;;;7.57;6.80;;;;;;;;;;4939000;29;20433;-82
2021/04/02 12:10:26;;;;;;;6.67;6.07;;;;;;;;;;4939139;29;20470;-77
2021/04/02 12:12:52;;;;;;;6.90;6.20;;;;;;;;;;4956211;29;20423;-82
2021/04/02 12:15:18;;;;;;;8.30;6.30;;;;;;;;;;4955975;29;20463;-81
2021/04/02 12:17:44;;;;;;;7.10;6.40;;;;;;;;;;4958255;29;20427;-86
2021/04/02 12:20:12;;;;;;;5.93;5.40;;;;;;;;;;4955986;29;20411;-83
2021/04/02 12:22:38;;;;;;;5.93;5.50;;;;;;;;;;4956382;29;20416;-82
2021/04/02 12:28:07;;;;;;;6.30;5.80;;;;;;;;;;4956004;28;20422;-75
2021/04/02 12:30:34;;;;;;;5.90;5.30;;;;;;;;;;4955800;29;20485;-85
2021/04/02 12:33:00;;;;;;;5.73;5.23;;;;;;;;;;4955909;29;20886;-82
2021/04/02 12:35:26;;;;;;;6.90;5.30;;;;;;;;;;4955606;29;20566;-82
2021/04/02 12:37:52;;;;;;;4.90;4.60;;;;;;;;;;4956029;29;20420;-84
2021/04/02 12:40:21;;;;;;;6.83;5.50;;;;;;;;;;4955728;29;20761;-82
2021/04/02 12:42:47;;;;;;;5.10;4.70;;;;;;;;;;4955975;29;20481;-84
2021/04/02 12:45:14;;;;;;;6.10;5.60;;;;;;;;;;4955574;29;20411;-81
2021/04/02 12:47:41;;;;;;;5.80;5.30;;;;;;;;;;4955754;29;20761;-82
2021/04/02 12:50:08;;;;;;;5.70;5.30;;;;;;;;;;4955177;29;20424;-78
2021/04/02 12:52:34;;;;;;;5.43;5.00;;;;;;;;;;4956675;29;20447;-86
2021/04/02 12:58:04;;;;;;;5.30;4.90;;;;;;;;;;4955446;29;20422;-82
2021/04/02 13:00:33;;;;;;;6.73;5.30;;;;;;;;;;4955537;29;20455;-82
2021/04/02 13:03:00;;;;;;;4.50;4.10;;;;;;;;;;4955677;29;20424;-82
2021/04/02 13:05:26;;;;;;;4.70;4.30;;;;;;;;;;4960410;29;20420;-81
2021/04/02 13:07:52;;;;;;;5.27;4.87;;;;;;;;;;4966223;29;20432;-85
2021/04/02 13:13:22;;;;;;;5.40;4.60;;;;;;;;;;4955970;29;20848;-82
2021/04/02 13:15:48;;;;;;;4.80;4.30;;;;;;;;;;4955354;29;20459;-83
2021/04/02 13:18:14;;;;;;;8.33;4.50;;;;;;;;;;4955259;29;20451;-81
2021/04/02 13:20:41;;;;;;;5.50;5.00;;;;;;;;;;4955107;29;20407;-84
2021/04/02 13:23:07;;;;;;;4.50;4.10;;;;;;;;;;4954947;29;20411;-87
2021/04/02 13:25:33;;;;;;;5.20;4.80;;;;;;;;;;4954894;29;20407;-82
2021/04/02 13:27:59;;;;;;;4.87;4.47;;;;;;;;;;4955219;29;20745;-85
2021/04/02 13:30:25;;;;;;;5.10;4.70;;;;;;;;;;4955036;29;20434;-84
2021/04/02 13:32:52;;;;;;;9.50;4.90;;;;;;;;;;4954995;29;20408;-85
2021/04/02 13:35:20;;;;;;;4.77;4.27;;;;;;;;;;4955040;29;20471;-82
2021/04/02 13:37:46;;;;;;;4.77;4.33;;;;;;;;;;4955276;29;20446;-84
2021/04/02 13:43:15;;;;;;;4.83;4.43;;;;;;;;;;4960668;29;20484;-83
2021/04/02 13:45:41;;;;;;;5.17;4.57;;;;;;;;;;4959269;29;20728;-85
2021/04/02 13:48:07;;;;;;;4.90;4.50;;;;;;;;;;4959928;29;20411;-82
2021/04/02 13:50:34;;;;;;;4.63;4.27;;;;;;;;;;4970302;29;20486;-78
2021/04/02 13:53:00;;;;;;;4.57;4.27;;;;;;;;;;4971822;29;20419;-75
2021/04/02 13:58:30;;;;;;;5.67;5.10;;;;;;;;;;4958459;29;20771;-84
2021/04/02 14:00:56;;;;;;;4.83;4.40;;;;;;;;;;4958836;29;20415;-85
2021/04/02 14:03:22;;;;;;;6.67;4.50;;;;;;;;;;4958802;29;20418;-83
2021/04/02 14:05:48;;;;;;;4.00;3.70;;;;;;;;;;4958189;29;20411;-80
2021/04/02 14:08:14;;;;;;;5.10;4.70;;;;;;;;;;4958589;29;20768;-83
2021/04/02 14:10:40;;;;;;;4.50;4.20;;;;;;;;;;4958029;29;20415;-77
2021/04/02 14:13:07;;;;;;;4.10;3.73;;;;;;;;;;4957854;29;20424;-77
2021/04/02 14:15:34;;;;;;;3.70;3.40;;;;;;;;;;4957981;29;20455;-78
2021/04/02 14:18:01;;;;;;;4.63;4.20;;;;;;;;;;4957882;29;20441;-77
2021/04/02 14:20:28;;;;;;;4.50;4.10;;;;;;;;;;4958348;29;20412;-81
2021/04/02 14:22:54;;;;;;;4.67;4.37;;;;;;;;;;4959800;29;20499;-78
2021/04/02 14:28:24;;;;;;;7.17;3.67;;;;;;;;;;4957442;29;20794;-83
2021/04/02 14:30:50;;;;;;;4.40;4.00;;;;;;;;;;4954161;29;20502;-84
2021/04/02 14:33:16;;;;;;;4.37;3.97;;;;;;;;;;4957472;29;20408;-86
2021/04/02 14:35:42;;;;;;;3.40;3.10;;;;;;;;;;4957039;29;20511;-81
2021/04/02 14:38:13;;;;;;;4.27;3.97;;;;;;;;;;4956686;29;20411;-78
2021/04/02 14:43:42;;;;;;;4.23;3.90;;;;;;;;;;4957141;29;20917;-83
2021/04/02 14:46:08;;;;;;;5.10;4.60;;;;;;;;;;4956323;29;20416;-82
2021/04/02 14:48:34;;;;;;;5.30;4.80;;;;;;;;;;4955928;29;20909;-78
2021/04/02 14:51:01;;;;;;;6.93;4.50;;;;;;;;;;4954659;28;20562;-80
2021/04/02 14:53:27;;;;;;;4.40;4.03;;;;;;;;;;4956054;29;20451;-78
2021/04/02 14:58:57;;;;;;;5.37;4.87;;;;;;;;;;4956019;29;20415;-74
2021/04/02 15:01:22;;;;;;;5.83;4.90;;;;;;;;;;4956036;29;20791;-79
2021/04/02 15:03:49;;;;;;;4.50;4.10;;;;;;;;;;4956593;29;20419;-78
2021/04/02 15:06:16;;;;;;;5.23;4.40;;;;;;;;;;4956345;29;20408;-75
2021/04/02 15:08:42;;;;;;;6.80;5.10;;;;;;;;;;4957031;29;20848;-75
2021/04/02 15:14:12;;;;;;;6.13;5.53;;;;;;;;;;4956264;29;20479;-81
2021/04/02 15:16:38;;;;;;;4.97;4.57;;;;;;;;;;4957124;29;20479;-76
2021/04/02 15:19:04;;;;;;;5.20;4.70;;;;;;;;;;4956476;29;20412;-78
2021/04/02 15:21:30;;;;;;;4.53;4.13;;;;;;;;;;4956518;29;20843;-79
2021/04/02 15:23:56;;;;;;;5.80;5.30;;;;;;;;;;4956445;29;20496;-78
2021/04/02 15:29:25;;;;;;;5.17;4.73;;;;;;;;;;4958517;29;20459;-78
2021/04/02 15:31:52;;;;;;;5.73;5.23;;;;;;;;;;4964371;29;20894;-82
2021/04/02 15:34:18;;;;;;;6.07;5.57;;;;;;;;;;4957802;29;20479;-86
2021/04/02 15:36:44;;;;;;;7.10;5.70;;;;;;;;;;4958958;29;20493;-80
2021/04/02 15:39:10;;;;;;;6.20;4.83;;;;;;;;;;4968410;29;20404;-75
2021/04/02 15:41:36;;;;;;;7.07;4.93;;;;;;;;;;4972828;29;20526;-79
2021/04/02 15:44:02;;;;;;;5.70;4.50;;;;;;;;;;4963747;29;20754;-84
2021/04/02 15:46:29;;;;;;;6.23;5.63;;;;;;;;;;4955800;29;20858;-82
2021/04/02 15:48:55;;;;;;;6.10;5.67;;;;;;;;;;4955541;29;20499;-80
2021/04/02 15:51:21;;;;;;;7.37;5.10;;;;;;;;;;4954675;28;20547;-82
2021/04/02 15:53:47;;;;;;;5.53;5.13;;;;;;;;;;4955008;29;20420;-79
2021/04/02 15:59:16;;;;;;;4.60;4.20;;;;;;;;;;4954346;29;20434;-81
2021/04/02 16:01:42;;;;;;;7.83;5.60;;;;;;;;;;4954988;29;20502;-83
2021/04/02 16:04:10;;;;;;;5.47;4.90;;;;;;;;;;4954165;28;20416;-78
2021/04/02 16:06:36;;;;;;;6.30;4.83;;;;;;;;;;4954529;29;20435;-85
2021/04/02 16:09:04;;;;;;;6.03;5.30;;;;;;;;;;4954732;29;20483;-82
2021/04/02 16:14:33;;;;;;;6.53;4.77;;;;;;;;;;4954211;29;20775;-78
2021/04/02 16:16:59;;;;;;;11.30;6.83;;;;;;;;;;4954154;29;20472;-81
2021/04/02 16:19:25;;;;;;;6.20;5.60;;;;;;;;;;4954103;29;20510;-81
2021/04/02 16:21:51;;;;;;;7.37;6.67;;;;;;;;;;4937406;29;20478;-79
2021/04/02 16:24:17;;;;;;;9.70;6.50;;;;;;;;;;4954422;29;20456;-75
2021/04/02 16:29:47;;;;;;;9.20;7.40;;;;;;;;;;4954020;29;20422;-81
2021/04/02 16:32:13;;;;;;;9.17;7.80;;;;;;;;;;4954116;29;20874;-79
2021/04/02 16:34:39;;;;;;;7.23;6.53;;;;;;;;;;4953771;29;20419;-83
2021/04/02 16:37:05;;;;;;;11.20;7.63;;;;;;;;;;4953739;29;20486;-80
2021/04/02 16:39:31;;;;;;;9.10;6.40;;;;;;;;;;4954113;29;20487;-80
2021/04/02 16:45:00;;;;;;;8.73;7.27;;;;;;;;;;4953484;29;20425;-80
2021/04/02 16:47:26;;;;;;;8.13;7.33;;;;;;;;;;4953802;29;20845;-76
2021/04/02 16:49:52;;;;;;;6.97;6.27;;;;;;;;;;4953783;29;20426;-78
2021/04/02 16:52:18;;;;;;;8.23;6.30;;;;;;;;;;4953834;29;20466;-80
2021/04/02 16:54:47;;;;;;;8.17;7.30;;;;;;;;;;4953866;29;20412;-81